sensor_id;sensor_type;location;lat;lon;timestamp;P1;durP1;ratioP1;P2;durP2;ratioP2
25567;SDS011;13455;51.480;7.594;2023-04-25T00:01:16;18.27;;;6.70;;
25567;SDS011;13455;51.480;7.594;2023-04-25T00:03:42;17.63;;;6.78;;
25567;SDS011;13455;51.480;7.594;2023-04-25T00:06:08;15.80;;;6.60;;
25567;SDS011;13455;51.480;7.594;2023-04-25T00:08:33;21.15;;;7.22;;
25567;SDS011;13455;51.480;7.594;2023-04-25T00:11:00;22.40;;;6.40;;
25567;SDS011;13455;51.480;7.594;2023-04-25T00:13:26;21.40;;;6.57;;
25567;SDS011;13455;51.480;7.594;2023-04-25T00:15:52;15.45;;;6.00;;
25567;SDS011;13455;51.480;7.594;2023-04-25T00:18:18;16.38;;;6.30;;
25567;SDS011;13455;51.480;7.594;2023-04-25T00:20:45;18.65;;;6.20;;
25567;SDS011;13455;51.480;7.594;2023-04-25T00:23:14;17.35;;;6.50;;
25567;SDS011;13455;51.480;7.594;2023-04-25T00:25:43;18.27;;;6.33;;
25567;SDS011;13455;51.480;7.594;2023-04-25T00:28:10;17.13;;;6.00;;
25567;SDS011;13455;51.480;7.594;2023-04-25T00:30:36;17.40;;;6.38;;
25567;SDS011;13455;51.480;7.594;2023-04-25T00:33:02;18.80;;;6.80;;
25567;SDS011;13455;51.480;7.594;2023-04-25T00:35:28;18.50;;;6.47;;
25567;SDS011;13455;51.480;7.594;2023-04-25T00:37:54;19.20;;;6.53;;
25567;SDS011;13455;51.480;7.594;2023-04-25T00:40:20;16.23;;;6.70;;
25567;SDS011;13455;51.480;7.594;2023-04-25T00:42:46;22.08;;;7.07;;
25567;SDS011;13455;51.480;7.594;2023-04-25T00:45:13;15.35;;;6.85;;
25567;SDS011;13455;51.480;7.594;2023-04-25T00:47:40;20.13;;;7.40;;
25567;SDS011;13455;51.480;7.594;2023-04-25T00:50:06;19.38;;;7.60;;
25567;SDS011;13455;51.480;7.594;2023-04-25T00:52:33;19.90;;;7.70;;
25567;SDS011;13455;51.480;7.594;2023-04-25T00:54:59;21.90;;;7.75;;
25567;SDS011;13455;51.480;7.594;2023-04-25T00:57:25;19.87;;;8.63;;
25567;SDS011;13455;51.480;7.594;2023-04-25T00:59:51;18.98;;;8.48;;
25567;SDS011;13455;51.480;7.594;2023-04-25T01:02:19;19.23;;;9.10;;
25567;SDS011;13455;51.480;7.594;2023-04-25T01:04:45;17.80;;;8.63;;
25567;SDS011;13455;51.480;7.594;2023-04-25T01:07:11;16.63;;;8.68;;
25567;SDS011;13455;51.480;7.594;2023-04-25T01:09:38;18.70;;;9.10;;
25567;SDS011;13455;51.480;7.594;2023-04-25T01:12:04;18.10;;;8.75;;
25567;SDS011;13455;51.480;7.594;2023-04-25T01:14:30;16.98;;;8.48;;
25567;SDS011;13455;51.480;7.594;2023-04-25T01:16:56;20.75;;;8.88;;
25567;SDS011;13455;51.480;7.594;2023-04-25T01:19:22;16.45;;;8.52;;
25567;SDS011;13455;51.480;7.594;2023-04-25T01:21:49;17.40;;;9.27;;
25567;SDS011;13455;51.480;7.594;2023-04-25T01:24:15;19.65;;;8.75;;
25567;SDS011;13455;51.480;7.594;2023-04-25T01:26:41;19.05;;;8.73;;
25567;SDS011;13455;51.480;7.594;2023-04-25T01:29:15;18.02;;;9.10;;
25567;SDS011;13455;51.480;7.594;2023-04-25T01:31:41;18.25;;;8.88;;
25567;SDS011;13455;51.480;7.594;2023-04-25T01:34:08;17.70;;;8.70;;
25567;SDS011;13455;51.480;7.594;2023-04-25T01:36:34;22.48;;;9.20;;
25567;SDS011;13455;51.480;7.594;2023-04-25T01:39:04;19.17;;;9.50;;
25567;SDS011;13455;51.480;7.594;2023-04-25T01:41:32;18.08;;;8.95;;
25567;SDS011;13455;51.480;7.594;2023-04-25T01:43:59;19.90;;;8.90;;
25567;SDS011;13455;51.480;7.594;2023-04-25T01:46:26;19.77;;;9.77;;
25567;SDS011;13455;51.480;7.594;2023-04-25T01:48:52;22.83;;;10.27;;
25567;SDS011;13455;51.480;7.594;2023-04-25T01:51:18;19.90;;;9.87;;
25567;SDS011;13455;51.480;7.594;2023-04-25T01:53:44;16.88;;;10.00;;
25567;SDS011;13455;51.480;7.594;2023-04-25T01:56:10;17.83;;;9.82;;
25567;SDS011;13455;51.480;7.594;2023-04-25T01:58:36;20.83;;;10.23;;
25567;SDS011;13455;51.480;7.594;2023-04-25T02:01:02;21.77;;;10.32;;
25567;SDS011;13455;51.480;7.594;2023-04-25T02:03:29;19.30;;;10.40;;
25567;SDS011;13455;51.480;7.594;2023-04-25T02:05:55;19.47;;;10.67;;
25567;SDS011;13455;51.480;7.594;2023-04-25T02:08:21;22.67;;;11.30;;
25567;SDS011;13455;51.480;7.594;2023-04-25T02:10:47;21.65;;;11.02;;
25567;SDS011;13455;51.480;7.594;2023-04-25T02:13:13;18.40;;;10.87;;
25567;SDS011;13455;51.480;7.594;2023-04-25T02:15:39;19.03;;;10.57;;
25567;SDS011;13455;51.480;7.594;2023-04-25T02:18:06;21.27;;;10.80;;
25567;SDS011;13455;51.480;7.594;2023-04-25T02:20:32;19.83;;;10.98;;
25567;SDS011;13455;51.480;7.594;2023-04-25T02:22:58;18.35;;;10.85;;
25567;SDS011;13455;51.480;7.594;2023-04-25T02:25:24;20.17;;;12.27;;
25567;SDS011;13455;51.480;7.594;2023-04-25T02:27:50;20.63;;;11.95;;
25567;SDS011;13455;51.480;7.594;2023-04-25T02:30:16;22.47;;;12.13;;
25567;SDS011;13455;51.480;7.594;2023-04-25T02:32:42;23.55;;;13.23;;
25567;SDS011;13455;51.480;7.594;2023-04-25T02:35:08;24.58;;;13.02;;
25567;SDS011;13455;51.480;7.594;2023-04-25T02:37:34;22.77;;;12.47;;
25567;SDS011;13455;51.480;7.594;2023-04-25T02:40:01;25.48;;;13.68;;
25567;SDS011;13455;51.480;7.594;2023-04-25T02:42:28;26.30;;;13.15;;
25567;SDS011;13455;51.480;7.594;2023-04-25T02:44:53;27.83;;;13.63;;
25567;SDS011;13455;51.480;7.594;2023-04-25T02:47:19;22.75;;;12.85;;
25567;SDS011;13455;51.480;7.594;2023-04-25T02:49:45;26.63;;;13.20;;
25567;SDS011;13455;51.480;7.594;2023-04-25T02:52:11;21.80;;;13.35;;
25567;SDS011;13455;51.480;7.594;2023-04-25T02:54:38;24.35;;;13.82;;
25567;SDS011;13455;51.480;7.594;2023-04-25T02:57:04;27.80;;;14.17;;
25567;SDS011;13455;51.480;7.594;2023-04-25T02:59:30;26.27;;;14.60;;
25567;SDS011;13455;51.480;7.594;2023-04-25T03:01:56;24.50;;;14.45;;
25567;SDS011;13455;51.480;7.594;2023-04-25T03:04:22;28.23;;;14.97;;
25567;SDS011;13455;51.480;7.594;2023-04-25T03:06:49;26.25;;;15.63;;
25567;SDS011;13455;51.480;7.594;2023-04-25T03:09:15;27.25;;;16.25;;
25567;SDS011;13455;51.480;7.594;2023-04-25T03:11:41;29.60;;;16.10;;
25567;SDS011;13455;51.480;7.594;2023-04-25T03:14:07;28.98;;;16.65;;
25567;SDS011;13455;51.480;7.594;2023-04-25T03:16:33;28.65;;;16.50;;
25567;SDS011;13455;51.480;7.594;2023-04-25T03:18:59;28.95;;;16.30;;
25567;SDS011;13455;51.480;7.594;2023-04-25T03:21:25;29.03;;;16.33;;
25567;SDS011;13455;51.480;7.594;2023-04-25T03:23:51;31.58;;;16.75;;
25567;SDS011;13455;51.480;7.594;2023-04-25T03:26:17;27.35;;;16.23;;
25567;SDS011;13455;51.480;7.594;2023-04-25T03:28:43;27.10;;;15.50;;
25567;SDS011;13455;51.480;7.594;2023-04-25T03:31:08;27.90;;;15.60;;
25567;SDS011;13455;51.480;7.594;2023-04-25T03:33:34;27.77;;;15.03;;
25567;SDS011;13455;51.480;7.594;2023-04-25T03:36:00;28.23;;;15.10;;
25567;SDS011;13455;51.480;7.594;2023-04-25T03:38:25;25.37;;;13.60;;
25567;SDS011;13455;51.480;7.594;2023-04-25T03:40:51;26.70;;;13.90;;
25567;SDS011;13455;51.480;7.594;2023-04-25T03:43:16;23.07;;;13.40;;
25567;SDS011;13455;51.480;7.594;2023-04-25T03:45:42;21.67;;;13.33;;
25567;SDS011;13455;51.480;7.594;2023-04-25T03:48:08;23.57;;;13.27;;
25567;SDS011;13455;51.480;7.594;2023-04-25T03:50:34;26.90;;;12.27;;
25567;SDS011;13455;51.480;7.594;2023-04-25T03:52:59;23.63;;;11.98;;
25567;SDS011;13455;51.480;7.594;2023-04-25T03:55:25;24.20;;;11.63;;
25567;SDS011;13455;51.480;7.594;2023-04-25T03:57:50;25.17;;;12.18;;
25567;SDS011;13455;51.480;7.594;2023-04-25T04:00:16;22.65;;;11.75;;
25567;SDS011;13455;51.480;7.594;2023-04-25T04:02:42;25.88;;;12.00;;
25567;SDS011;13455;51.480;7.594;2023-04-25T04:05:08;25.10;;;10.38;;
25567;SDS011;13455;51.480;7.594;2023-04-25T04:07:34;21.35;;;10.65;;
25567;SDS011;13455;51.480;7.594;2023-04-25T04:10:05;26.70;;;11.02;;
25567;SDS011;13455;51.480;7.594;2023-04-25T04:12:34;24.73;;;10.10;;
25567;SDS011;13455;51.480;7.594;2023-04-25T04:14:59;22.60;;;9.97;;
25567;SDS011;13455;51.480;7.594;2023-04-25T04:17:25;25.23;;;9.68;;
25567;SDS011;13455;51.480;7.594;2023-04-25T04:19:51;23.45;;;9.43;;
25567;SDS011;13455;51.480;7.594;2023-04-25T04:22:16;23.17;;;9.20;;
25567;SDS011;13455;51.480;7.594;2023-04-25T04:24:42;22.20;;;9.60;;
25567;SDS011;13455;51.480;7.594;2023-04-25T04:27:11;20.17;;;9.38;;
25567;SDS011;13455;51.480;7.594;2023-04-25T04:29:37;23.13;;;9.20;;
25567;SDS011;13455;51.480;7.594;2023-04-25T04:32:03;20.08;;;9.10;;
25567;SDS011;13455;51.480;7.594;2023-04-25T04:34:29;23.13;;;9.35;;
25567;SDS011;13455;51.480;7.594;2023-04-25T04:36:56;15.55;;;6.45;;
25567;SDS011;13455;51.480;7.594;2023-04-25T04:39:22;15.00;;;4.80;;
25567;SDS011;13455;51.480;7.594;2023-04-25T04:41:47;11.83;;;5.00;;
25567;SDS011;13455;51.480;7.594;2023-04-25T04:44:13;13.35;;;4.72;;
25567;SDS011;13455;51.480;7.594;2023-04-25T04:46:39;12.38;;;4.55;;
25567;SDS011;13455;51.480;7.594;2023-04-25T04:49:08;12.10;;;4.47;;
25567;SDS011;13455;51.480;7.594;2023-04-25T04:51:34;12.48;;;4.40;;
25567;SDS011;13455;51.480;7.594;2023-04-25T04:54:00;12.75;;;4.00;;
25567;SDS011;13455;51.480;7.594;2023-04-25T04:56:27;10.50;;;3.90;;
25567;SDS011;13455;51.480;7.594;2023-04-25T04:58:56;11.63;;;3.70;;
25567;SDS011;13455;51.480;7.594;2023-04-25T05:01:22;12.07;;;4.32;;
25567;SDS011;13455;51.480;7.594;2023-04-25T05:03:48;11.83;;;3.90;;
25567;SDS011;13455;51.480;7.594;2023-04-25T05:06:13;10.77;;;3.60;;
25567;SDS011;13455;51.480;7.594;2023-04-25T05:08:39;14.70;;;4.00;;
25567;SDS011;13455;51.480;7.594;2023-04-25T05:11:05;12.85;;;3.83;;
25567;SDS011;13455;51.480;7.594;2023-04-25T05:13:30;15.45;;;3.88;;
25567;SDS011;13455;51.480;7.594;2023-04-25T05:15:56;11.82;;;3.60;;
25567;SDS011;13455;51.480;7.594;2023-04-25T05:18:22;11.60;;;3.65;;
25567;SDS011;13455;51.480;7.594;2023-04-25T05:20:47;11.85;;;4.00;;
25567;SDS011;13455;51.480;7.594;2023-04-25T05:23:13;13.57;;;3.72;;
25567;SDS011;13455;51.480;7.594;2023-04-25T05:25:38;10.87;;;3.77;;
25567;SDS011;13455;51.480;7.594;2023-04-25T05:28:04;15.33;;;4.20;;
25567;SDS011;13455;51.480;7.594;2023-04-25T05:30:30;11.20;;;3.88;;
25567;SDS011;13455;51.480;7.594;2023-04-25T05:32:56;11.43;;;3.70;;
25567;SDS011;13455;51.480;7.594;2023-04-25T05:35:21;11.83;;;3.60;;
25567;SDS011;13455;51.480;7.594;2023-04-25T05:37:47;12.87;;;4.17;;
25567;SDS011;13455;51.480;7.594;2023-04-25T05:40:13;15.57;;;4.17;;
25567;SDS011;13455;51.480;7.594;2023-04-25T05:42:38;14.37;;;4.13;;
25567;SDS011;13455;51.480;7.594;2023-04-25T05:45:04;12.87;;;4.20;;
25567;SDS011;13455;51.480;7.594;2023-04-25T05:47:30;10.15;;;3.88;;
25567;SDS011;13455;51.480;7.594;2023-04-25T05:49:56;16.38;;;4.40;;
25567;SDS011;13455;51.480;7.594;2023-04-25T05:52:21;12.07;;;4.10;;
25567;SDS011;13455;51.480;7.594;2023-04-25T05:54:47;10.77;;;4.15;;
25567;SDS011;13455;51.480;7.594;2023-04-25T05:57:22;14.90;;;4.07;;
25567;SDS011;13455;51.480;7.594;2023-04-25T05:59:49;12.43;;;4.10;;
25567;SDS011;13455;51.480;7.594;2023-04-25T06:02:15;14.50;;;4.45;;
25567;SDS011;13455;51.480;7.594;2023-04-25T06:04:41;15.57;;;4.43;;
25567;SDS011;13455;51.480;7.594;2023-04-25T06:07:06;14.27;;;4.73;;
25567;SDS011;13455;51.480;7.594;2023-04-25T06:09:32;15.50;;;4.80;;
25567;SDS011;13455;51.480;7.594;2023-04-25T06:11:58;14.07;;;4.60;;
25567;SDS011;13455;51.480;7.594;2023-04-25T06:14:23;15.43;;;5.00;;
25567;SDS011;13455;51.480;7.594;2023-04-25T06:16:49;17.63;;;4.90;;
25567;SDS011;13455;51.480;7.594;2023-04-25T06:19:14;15.80;;;5.00;;
25567;SDS011;13455;51.480;7.594;2023-04-25T06:21:41;19.95;;;5.10;;
25567;SDS011;13455;51.480;7.594;2023-04-25T06:24:08;15.27;;;4.93;;
25567;SDS011;13455;51.480;7.594;2023-04-25T06:26:33;17.90;;;4.87;;
25567;SDS011;13455;51.480;7.594;2023-04-25T06:28:59;15.83;;;5.00;;
25567;SDS011;13455;51.480;7.594;2023-04-25T06:31:25;17.03;;;5.33;;
25567;SDS011;13455;51.480;7.594;2023-04-25T06:33:50;18.43;;;5.60;;
25567;SDS011;13455;51.480;7.594;2023-04-25T06:36:19;16.75;;;5.30;;
25567;SDS011;13455;51.480;7.594;2023-04-25T06:38:49;17.38;;;5.25;;
25567;SDS011;13455;51.480;7.594;2023-04-25T06:41:16;19.73;;;5.60;;
25567;SDS011;13455;51.480;7.594;2023-04-25T06:43:41;17.73;;;5.00;;
25567;SDS011;13455;51.480;7.594;2023-04-25T06:46:07;20.03;;;5.53;;
25567;SDS011;13455;51.480;7.594;2023-04-25T06:48:32;17.07;;;5.20;;
25567;SDS011;13455;51.480;7.594;2023-04-25T06:50:58;20.80;;;5.30;;
25567;SDS011;13455;51.480;7.594;2023-04-25T06:53:24;33.47;;;7.10;;
25567;SDS011;13455;51.480;7.594;2023-04-25T06:55:49;18.30;;;5.63;;
25567;SDS011;13455;51.480;7.594;2023-04-25T06:58:15;19.73;;;5.60;;
25567;SDS011;13455;51.480;7.594;2023-04-25T07:00:41;19.17;;;6.17;;
25567;SDS011;13455;51.480;7.594;2023-04-25T07:03:07;19.08;;;6.63;;
25567;SDS011;13455;51.480;7.594;2023-04-25T07:05:32;20.92;;;6.40;;
25567;SDS011;13455;51.480;7.594;2023-04-25T07:07:58;17.58;;;5.65;;
25567;SDS011;13455;51.480;7.594;2023-04-25T07:10:25;19.55;;;6.20;;
25567;SDS011;13455;51.480;7.594;2023-04-25T07:12:50;18.83;;;6.35;;
25567;SDS011;13455;51.480;7.594;2023-04-25T07:15:16;19.80;;;6.20;;
25567;SDS011;13455;51.480;7.594;2023-04-25T07:17:42;18.05;;;5.80;;
25567;SDS011;13455;51.480;7.594;2023-04-25T07:20:08;19.45;;;5.55;;
25567;SDS011;13455;51.480;7.594;2023-04-25T07:22:34;20.08;;;5.35;;
25567;SDS011;13455;51.480;7.594;2023-04-25T07:25:00;19.65;;;5.45;;
25567;SDS011;13455;51.480;7.594;2023-04-25T07:27:26;19.65;;;5.10;;
25567;SDS011;13455;51.480;7.594;2023-04-25T07:29:51;21.37;;;5.13;;
25567;SDS011;13455;51.480;7.594;2023-04-25T07:32:17;20.90;;;5.93;;
25567;SDS011;13455;51.480;7.594;2023-04-25T07:34:42;22.43;;;5.40;;
25567;SDS011;13455;51.480;7.594;2023-04-25T07:37:08;16.27;;;4.75;;
25567;SDS011;13455;51.480;7.594;2023-04-25T07:39:34;17.10;;;4.60;;
25567;SDS011;13455;51.480;7.594;2023-04-25T07:42:00;14.00;;;4.10;;
25567;SDS011;13455;51.480;7.594;2023-04-25T07:44:27;20.38;;;4.32;;
25567;SDS011;13455;51.480;7.594;2023-04-25T07:46:52;20.80;;;4.47;;
25567;SDS011;13455;51.480;7.594;2023-04-25T07:49:18;17.08;;;3.92;;
25567;SDS011;13455;51.480;7.594;2023-04-25T07:51:44;18.95;;;3.75;;
25567;SDS011;13455;51.480;7.594;2023-04-25T07:54:12;17.17;;;3.90;;
25567;SDS011;13455;51.480;7.594;2023-04-25T07:56:38;21.00;;;4.40;;
25567;SDS011;13455;51.480;7.594;2023-04-25T07:59:03;16.83;;;4.90;;
25567;SDS011;13455;51.480;7.594;2023-04-25T08:01:29;15.63;;;4.37;;
25567;SDS011;13455;51.480;7.594;2023-04-25T08:03:54;16.77;;;4.30;;
25567;SDS011;13455;51.480;7.594;2023-04-25T08:06:20;17.83;;;4.15;;
25567;SDS011;13455;51.480;7.594;2023-04-25T08:08:46;18.25;;;4.30;;
25567;SDS011;13455;51.480;7.594;2023-04-25T08:11:12;15.80;;;4.47;;
25567;SDS011;13455;51.480;7.594;2023-04-25T08:13:37;19.40;;;4.50;;
25567;SDS011;13455;51.480;7.594;2023-04-25T08:16:03;16.63;;;3.80;;
25567;SDS011;13455;51.480;7.594;2023-04-25T08:18:29;18.30;;;3.87;;
25567;SDS011;13455;51.480;7.594;2023-04-25T08:20:55;21.90;;;4.50;;
25567;SDS011;13455;51.480;7.594;2023-04-25T08:23:21;17.87;;;4.00;;
25567;SDS011;13455;51.480;7.594;2023-04-25T08:25:47;17.37;;;4.20;;
25567;SDS011;13455;51.480;7.594;2023-04-25T08:28:14;17.40;;;4.75;;
25567;SDS011;13455;51.480;7.594;2023-04-25T08:30:40;15.97;;;4.60;;
25567;SDS011;13455;51.480;7.594;2023-04-25T08:33:05;18.77;;;4.13;;
25567;SDS011;13455;51.480;7.594;2023-04-25T08:35:31;18.20;;;3.50;;
25567;SDS011;13455;51.480;7.594;2023-04-25T08:37:58;13.70;;;3.28;;
25567;SDS011;13455;51.480;7.594;2023-04-25T08:40:26;16.67;;;3.28;;
25567;SDS011;13455;51.480;7.594;2023-04-25T08:42:55;12.82;;;3.10;;
25567;SDS011;13455;51.480;7.594;2023-04-25T08:45:22;16.00;;;3.22;;
25567;SDS011;13455;51.480;7.594;2023-04-25T08:47:48;11.23;;;2.83;;
25567;SDS011;13455;51.480;7.594;2023-04-25T08:50:18;15.13;;;3.03;;
25567;SDS011;13455;51.480;7.594;2023-04-25T08:52:46;14.37;;;3.00;;
25567;SDS011;13455;51.480;7.594;2023-04-25T08:55:13;13.77;;;3.23;;
25567;SDS011;13455;51.480;7.594;2023-04-25T08:57:40;17.38;;;3.10;;
25567;SDS011;13455;51.480;7.594;2023-04-25T09:00:08;13.15;;;3.13;;
25567;SDS011;13455;51.480;7.594;2023-04-25T09:02:35;13.50;;;2.80;;
25567;SDS011;13455;51.480;7.594;2023-04-25T09:05:02;12.23;;;2.75;;
25567;SDS011;13455;51.480;7.594;2023-04-25T09:07:29;13.15;;;2.85;;
25567;SDS011;13455;51.480;7.594;2023-04-25T09:09:55;13.40;;;2.77;;
25567;SDS011;13455;51.480;7.594;2023-04-25T09:12:21;12.43;;;2.63;;
25567;SDS011;13455;51.480;7.594;2023-04-25T09:15:00;10.18;;;2.90;;
25567;SDS011;13455;51.480;7.594;2023-04-25T09:17:27;10.68;;;2.60;;
25567;SDS011;13455;51.480;7.594;2023-04-25T09:19:53;10.87;;;2.70;;
25567;SDS011;13455;51.480;7.594;2023-04-25T09:22:19;11.57;;;2.63;;
25567;SDS011;13455;51.480;7.594;2023-04-25T09:24:47;11.05;;;2.50;;
25567;SDS011;13455;51.480;7.594;2023-04-25T09:27:19;11.82;;;2.55;;
25567;SDS011;13455;51.480;7.594;2023-04-25T09:29:50;10.63;;;2.58;;
25567;SDS011;13455;51.480;7.594;2023-04-25T09:32:22;12.80;;;2.40;;
25567;SDS011;13455;51.480;7.594;2023-04-25T09:34:53;11.30;;;2.10;;
25567;SDS011;13455;51.480;7.594;2023-04-25T09:37:29;10.65;;;2.65;;
25567;SDS011;13455;51.480;7.594;2023-04-25T09:39:56;15.80;;;2.57;;
25567;SDS011;13455;51.480;7.594;2023-04-25T09:42:30;12.30;;;2.50;;
25567;SDS011;13455;51.480;7.594;2023-04-25T09:44:57;14.00;;;3.00;;
25567;SDS011;13455;51.480;7.594;2023-04-25T09:47:23;12.13;;;2.75;;
25567;SDS011;13455;51.480;7.594;2023-04-25T09:49:50;12.27;;;2.50;;
25567;SDS011;13455;51.480;7.594;2023-04-25T09:52:17;11.80;;;2.70;;
25567;SDS011;13455;51.480;7.594;2023-04-25T09:54:45;8.65;;;2.53;;
25567;SDS011;13455;51.480;7.594;2023-04-25T09:57:18;11.57;;;2.88;;
25567;SDS011;13455;51.480;7.594;2023-04-25T10:02:13;13.38;;;2.70;;
25567;SDS011;13455;51.480;7.594;2023-04-25T10:04:39;12.90;;;2.63;;
25567;SDS011;13455;51.480;7.594;2023-04-25T10:07:07;10.82;;;2.40;;
25567;SDS011;13455;51.480;7.594;2023-04-25T10:09:33;11.05;;;2.42;;
25567;SDS011;13455;51.480;7.594;2023-04-25T10:12:02;9.90;;;2.58;;
25567;SDS011;13455;51.480;7.594;2023-04-25T10:14:29;12.32;;;2.85;;
25567;SDS011;13455;51.480;7.594;2023-04-25T10:16:57;14.00;;;3.03;;
25567;SDS011;13455;51.480;7.594;2023-04-25T10:19:23;11.20;;;2.78;;
25567;SDS011;13455;51.480;7.594;2023-04-25T10:21:51;13.27;;;2.53;;
25567;SDS011;13455;51.480;7.594;2023-04-25T10:24:26;9.75;;;2.50;;
25567;SDS011;13455;51.480;7.594;2023-04-25T10:26:52;15.10;;;3.75;;
25567;SDS011;13455;51.480;7.594;2023-04-25T10:29:21;11.23;;;2.10;;
25567;SDS011;13455;51.480;7.594;2023-04-25T10:31:48;9.25;;;2.30;;
25567;SDS011;13455;51.480;7.594;2023-04-25T10:34:15;9.70;;;2.28;;
25567;SDS011;13455;51.480;7.594;2023-04-25T10:36:42;9.30;;;2.33;;
25567;SDS011;13455;51.480;7.594;2023-04-25T10:39:07;9.93;;;2.50;;
25567;SDS011;13455;51.480;7.594;2023-04-25T10:44:33;11.07;;;2.30;;
25567;SDS011;13455;51.480;7.594;2023-04-25T10:47:00;8.70;;;1.83;;
25567;SDS011;13455;51.480;7.594;2023-04-25T10:49:35;9.30;;;1.90;;
25567;SDS011;13455;51.480;7.594;2023-04-25T10:52:17;6.50;;;1.60;;
25567;SDS011;13455;51.480;7.594;2023-04-25T10:54:54;6.88;;;1.70;;
25567;SDS011;13455;51.480;7.594;2023-04-25T11:02:30;9.15;;;1.85;;
25567;SDS011;13455;51.480;7.594;2023-04-25T11:04:56;8.50;;;1.80;;
25567;SDS011;13455;51.480;7.594;2023-04-25T11:10:15;6.63;;;1.60;;
25567;SDS011;13455;51.480;7.594;2023-04-25T11:12:41;7.18;;;1.67;;
25567;SDS011;13455;51.480;7.594;2023-04-25T11:15:07;8.43;;;1.77;;
25567;SDS011;13455;51.480;7.594;2023-04-25T11:17:33;7.63;;;1.60;;
25567;SDS011;13455;51.480;7.594;2023-04-25T11:19:59;9.30;;;1.50;;
25567;SDS011;13455;51.480;7.594;2023-04-25T11:22:26;6.27;;;1.57;;
25567;SDS011;13455;51.480;7.594;2023-04-25T11:24:52;8.00;;;1.58;;
25567;SDS011;13455;51.480;7.594;2023-04-25T11:27:18;7.68;;;1.77;;
25567;SDS011;13455;51.480;7.594;2023-04-25T11:29:45;8.77;;;1.90;;
25567;SDS011;13455;51.480;7.594;2023-04-25T11:32:13;10.13;;;2.10;;
25567;SDS011;13455;51.480;7.594;2023-04-25T11:34:42;8.82;;;1.70;;
25567;SDS011;13455;51.480;7.594;2023-04-25T11:37:10;6.00;;;1.73;;
25567;SDS011;13455;51.480;7.594;2023-04-25T11:39:37;6.40;;;1.50;;
25567;SDS011;13455;51.480;7.594;2023-04-25T11:42:03;8.27;;;1.60;;
25567;SDS011;13455;51.480;7.594;2023-04-25T11:44:30;5.32;;;1.60;;
25567;SDS011;13455;51.480;7.594;2023-04-25T11:46:56;7.80;;;1.63;;
25567;SDS011;13455;51.480;7.594;2023-04-25T11:49:21;7.38;;;1.65;;
25567;SDS011;13455;51.480;7.594;2023-04-25T11:51:49;5.65;;;1.58;;
25567;SDS011;13455;51.480;7.594;2023-04-25T11:54:15;5.63;;;1.58;;
25567;SDS011;13455;51.480;7.594;2023-04-25T11:56:41;5.18;;;1.42;;
25567;SDS011;13455;51.480;7.594;2023-04-25T11:59:07;8.75;;;1.52;;
25567;SDS011;13455;51.480;7.594;2023-04-25T12:01:37;6.65;;;1.80;;
25567;SDS011;13455;51.480;7.594;2023-04-25T12:06:39;7.82;;;1.60;;
25567;SDS011;13455;51.480;7.594;2023-04-25T12:09:07;7.07;;;1.25;;
25567;SDS011;13455;51.480;7.594;2023-04-25T12:11:45;4.15;;;1.23;;
25567;SDS011;13455;51.480;7.594;2023-04-25T12:14:25;4.85;;;1.23;;
25567;SDS011;13455;51.480;7.594;2023-04-25T12:16:54;7.20;;;1.20;;
25567;SDS011;13455;51.480;7.594;2023-04-25T12:19:22;4.80;;;1.25;;
25567;SDS011;13455;51.480;7.594;2023-04-25T12:21:49;3.47;;;1.08;;
25567;SDS011;13455;51.480;7.594;2023-04-25T12:24:25;5.60;;;1.10;;
25567;SDS011;13455;51.480;7.594;2023-04-25T12:29:25;5.35;;;1.17;;
25567;SDS011;13455;51.480;7.594;2023-04-25T12:31:52;4.40;;;1.23;;
25567;SDS011;13455;51.480;7.594;2023-04-25T12:34:18;3.20;;;0.90;;
25567;SDS011;13455;51.480;7.594;2023-04-25T12:36:45;3.47;;;1.13;;
25567;SDS011;13455;51.480;7.594;2023-04-25T12:39:17;4.55;;;1.00;;
25567;SDS011;13455;51.480;7.594;2023-04-25T12:41:47;7.90;;;1.10;;
25567;SDS011;13455;51.480;7.594;2023-04-25T12:44:13;3.78;;;1.00;;
25567;SDS011;13455;51.480;7.594;2023-04-25T12:46:39;3.55;;;0.98;;
25567;SDS011;13455;51.480;7.594;2023-04-25T12:49:06;4.20;;;1.10;;
25567;SDS011;13455;51.480;7.594;2023-04-25T12:51:33;3.87;;;0.80;;
25567;SDS011;13455;51.480;7.594;2023-04-25T12:54:00;4.50;;;1.00;;
25567;SDS011;13455;51.480;7.594;2023-04-25T12:56:26;3.22;;;1.05;;
25567;SDS011;13455;51.480;7.594;2023-04-25T12:58:52;5.13;;;1.00;;
25567;SDS011;13455;51.480;7.594;2023-04-25T13:01:18;4.10;;;1.00;;
25567;SDS011;13455;51.480;7.594;2023-04-25T13:03:45;3.90;;;0.80;;
25567;SDS011;13455;51.480;7.594;2023-04-25T13:06:10;2.80;;;0.80;;
25567;SDS011;13455;51.480;7.594;2023-04-25T13:08:36;4.67;;;0.90;;
25567;SDS011;13455;51.480;7.594;2023-04-25T13:11:03;4.68;;;0.90;;
25567;SDS011;13455;51.480;7.594;2023-04-25T13:13:29;3.92;;;0.90;;
25567;SDS011;13455;51.480;7.594;2023-04-25T13:15:56;3.42;;;0.80;;
25567;SDS011;13455;51.480;7.594;2023-04-25T13:18:22;2.70;;;0.93;;
25567;SDS011;13455;51.480;7.594;2023-04-25T13:20:51;3.53;;;0.82;;
25567;SDS011;13455;51.480;7.594;2023-04-25T13:23:18;2.33;;;0.85;;
25567;SDS011;13455;51.480;7.594;2023-04-25T13:25:44;4.03;;;1.00;;
25567;SDS011;13455;51.480;7.594;2023-04-25T13:28:10;3.30;;;1.00;;
25567;SDS011;13455;51.480;7.594;2023-04-25T13:30:35;5.30;;;0.93;;
25567;SDS011;13455;51.480;7.594;2023-04-25T13:33:01;3.93;;;0.90;;
25567;SDS011;13455;51.480;7.594;2023-04-25T13:35:28;5.80;;;1.10;;
25567;SDS011;13455;51.480;7.594;2023-04-25T13:37:55;5.70;;;1.08;;
25567;SDS011;13455;51.480;7.594;2023-04-25T13:40:21;4.07;;;0.90;;
25567;SDS011;13455;51.480;7.594;2023-04-25T13:42:47;4.35;;;1.00;;
25567;SDS011;13455;51.480;7.594;2023-04-25T13:45:13;5.10;;;1.00;;
25567;SDS011;13455;51.480;7.594;2023-04-25T13:47:39;3.70;;;0.93;;
25567;SDS011;13455;51.480;7.594;2023-04-25T13:50:04;6.17;;;1.10;;
25567;SDS011;13455;51.480;7.594;2023-04-25T13:52:31;4.32;;;1.25;;
25567;SDS011;13455;51.480;7.594;2023-04-25T13:54:56;6.00;;;1.10;;
25567;SDS011;13455;51.480;7.594;2023-04-25T13:57:22;4.88;;;1.00;;
25567;SDS011;13455;51.480;7.594;2023-04-25T13:59:48;4.22;;;1.20;;
25567;SDS011;13455;51.480;7.594;2023-04-25T14:02:14;5.33;;;1.17;;
25567;SDS011;13455;51.480;7.594;2023-04-25T14:04:40;4.40;;;1.17;;
25567;SDS011;13455;51.480;7.594;2023-04-25T14:07:06;4.90;;;1.20;;
25567;SDS011;13455;51.480;7.594;2023-04-25T14:09:31;3.50;;;1.00;;
25567;SDS011;13455;51.480;7.594;2023-04-25T14:11:57;5.55;;;1.40;;
25567;SDS011;13455;51.480;7.594;2023-04-25T14:14:23;4.95;;;1.10;;
25567;SDS011;13455;51.480;7.594;2023-04-25T14:16:49;5.40;;;1.33;;
25567;SDS011;13455;51.480;7.594;2023-04-25T14:19:15;4.68;;;1.35;;
25567;SDS011;13455;51.480;7.594;2023-04-25T14:21:41;3.60;;;1.10;;
25567;SDS011;13455;51.480;7.594;2023-04-25T14:24:08;5.68;;;1.10;;
25567;SDS011;13455;51.480;7.594;2023-04-25T14:26:34;3.07;;;1.00;;
25567;SDS011;13455;51.480;7.594;2023-04-25T14:29:00;4.28;;;1.00;;
25567;SDS011;13455;51.480;7.594;2023-04-25T14:31:26;3.80;;;1.00;;
25567;SDS011;13455;51.480;7.594;2023-04-25T14:33:53;3.42;;;1.13;;
25567;SDS011;13455;51.480;7.594;2023-04-25T14:36:18;3.60;;;1.00;;
25567;SDS011;13455;51.480;7.594;2023-04-25T14:38:45;5.65;;;1.30;;
25567;SDS011;13455;51.480;7.594;2023-04-25T14:41:11;5.13;;;1.10;;
25567;SDS011;13455;51.480;7.594;2023-04-25T14:43:37;3.45;;;1.00;;
25567;SDS011;13455;51.480;7.594;2023-04-25T14:46:04;4.43;;;1.30;;
25567;SDS011;13455;51.480;7.594;2023-04-25T14:48:31;5.90;;;1.40;;
25567;SDS011;13455;51.480;7.594;2023-04-25T14:50:57;4.97;;;1.20;;